Time;durP1;ratioP1;P1;durP2;ratioP2;P2;SDS_P1;SDS_P2;PMS_P1;PMS_P2;Temp;Humidity;BMP_temperature;BMP_pressure;BME280_temperature;BME280_humidity;BME280_pressure;Samples;Min_cycle;Max_cycle;Signal;HPM_P1;HPM_P2
2023/01/15 00:01:24;;;;;;;2.50;0.77;;;;;;;3.76;100.00;99099.59;4913444;29;20048;-72
2023/01/15 00:03:53;;;;;;;1.85;1.02;;;;;;;3.80;100.00;99099.16;4913637;29;20055;-72
2023/01/15 00:06:20;;;;;;;2.97;0.98;;;;;;;3.83;100.00;99095.34;4913249;29;20071;-72
2023/01/15 00:08:47;;;;;;;3.03;0.90;;;;;;;3.80;100.00;99099.16;4913548;29;20134;-72
2023/01/15 00:11:14;;;;;;;2.63;1.08;;;;;;;3.80;100.00;99093.84;4912605;29;20490;-72
2023/01/15 00:13:41;;;;;;;1.80;0.80;;;;;;;3.82;100.00;99096.31;4912692;29;20214;-70
2023/01/15 00:16:16;;;;;;;1.42;0.73;;;;;;;3.80;100.00;99099.16;4914031;29;20126;-72
2023/01/15 00:18:42;;;;;;;1.50;0.70;;;;;;;3.80;100.00;99100.97;4913323;29;20561;-71
2023/01/15 00:21:11;;;;;;;1.80;0.63;;;;;;;3.84;100.00;99102.31;4912650;29;20047;-72
2023/01/15 00:29:13;;;;;;;2.47;0.80;;;;;;;3.91;100.00;99095.41;4913208;29;20383;-71
2023/01/15 00:31:41;;;;;;;2.80;0.75;;;;;;;3.92;100.00;99091.75;4915613;29;20135;-72
2023/01/15 00:34:07;;;;;;;4.13;0.90;;;;;;;3.96;100.00;99092.25;4916944;29;20734;-72
2023/01/15 00:36:36;;;;;;;1.45;0.60;;;;;;;3.93;100.00;99081.97;4913340;29;20422;-72
2023/01/15 00:39:03;;;;;;;4.30;0.65;;;;;;;3.91;100.00;99082.13;4916189;29;20413;-72
2023/01/15 00:41:30;;;;;;;3.95;0.85;;;;;;;3.91;100.00;99073.34;4917273;29;20138;-72
2023/01/15 00:43:56;;;;;;;1.42;0.65;;;;;;;3.93;100.00;99063.38;4917001;29;20497;-71
2023/01/15 00:46:23;;;;;;;2.88;0.90;;;;;;;3.97;100.00;99054.97;4916447;29;20048;-72
2023/01/15 00:48:49;;;;;;;2.95;1.00;;;;;;;3.98;100.00;99069.06;4916886;29;20051;-71
2023/01/15 00:51:16;;;;;;;2.70;1.20;;;;;;;4.04;100.00;99058.66;4916890;29;20127;-72
2023/01/15 00:53:42;;;;;;;1.15;0.77;;;;;;;4.01;100.00;99066.94;4916365;29;20051;-72
2023/01/15 00:56:08;;;;;;;1.50;0.70;;;;;;;4.06;100.00;99059.31;4916578;29;20545;-71
2023/01/15 00:58:35;;;;;;;1.15;0.70;;;;;;;4.07;100.00;99071.59;4916245;29;20052;-71
2023/01/15 01:01:01;;;;;;;0.80;0.50;;;;;;;4.04;100.00;99058.66;4917215;29;20058;-71
2023/01/15 01:03:28;;;;;;;1.92;0.57;;;;;;;4.10;100.00;99052.72;4916381;29;20048;-71
2023/01/15 01:06:02;;;;;;;0.98;0.70;;;;;;;4.06;100.00;99046.03;4899204;29;20059;-71
2023/01/15 01:08:29;;;;;;;2.38;0.65;;;;;;;4.09;100.00;99039.59;4897328;29;20415;-71
2023/01/15 01:11:07;;;;;;;1.75;0.80;;;;;;;4.13;100.00;99040.09;4908678;29;20043;-71
2023/01/15 01:13:34;;;;;;;0.52;0.40;;;;;;;4.08;100.00;99049.38;4916334;29;20409;-71
2023/01/15 01:16:00;;;;;;;2.13;0.80;;;;;;;4.08;100.00;99032.63;4915201;29;20048;-71
2023/01/15 01:18:27;;;;;;;1.00;0.70;;;;;;;4.14;100.00;99047.94;4915943;29;20103;-71
2023/01/15 01:20:54;;;;;;;1.05;0.70;;;;;;;4.17;100.00;99042.28;4915422;29;20421;-71
2023/01/15 01:23:23;;;;;;;2.95;0.50;;;;;;;4.14;100.00;99039.09;4915641;29;20378;-71
2023/01/15 01:25:50;;;;;;;1.95;0.85;;;;;;;4.15;100.00;99036.31;4915940;29;20044;-70
2023/01/15 01:28:16;;;;;;;2.20;0.73;;;;;;;4.15;100.00;99048.75;4917044;29;20123;-71
2023/01/15 01:30:43;;;;;;;0.90;0.68;;;;;;;4.12;100.00;99057.03;4915992;29;20076;-71
2023/01/15 01:33:09;;;;;;;1.48;0.60;;;;;;;4.16;100.00;99061.84;4915761;29;20051;-71
2023/01/15 01:35:35;;;;;;;1.48;0.60;;;;;;;4.23;100.00;99052.25;4915438;29;20049;-71
2023/01/15 01:38:02;;;;;;;1.40;0.68;;;;;;;4.34;100.00;99053.78;4915490;29;20139;-70
2023/01/15 01:40:29;;;;;;;1.20;0.82;;;;;;;4.29;100.00;99048.97;4906495;29;20048;-69
2023/01/15 01:42:55;;;;;;;2.47;0.77;;;;;;;4.30;100.00;99028.56;4914622;29;20131;-70
2023/01/15 01:45:27;;;;;;;0.70;0.47;;;;;;;4.32;100.00;99024.75;4915431;29;20052;-70
2023/01/15 01:47:58;;;;;;;1.80;0.70;;;;;;;4.34;100.00;99020.09;4915453;29;20091;-70
2023/01/15 01:50:24;;;;;;;3.22;0.60;;;;;;;4.36;100.00;99032.41;4915809;29;20408;-71
2023/01/15 01:52:59;;;;;;;0.77;0.50;;;;;;;4.31;100.00;99032.84;4915339;29;20076;-69
2023/01/15 01:55:26;;;;;;;0.98;0.60;;;;;;;4.26;100.00;99036.00;4915686;29;20048;-70
2023/01/15 01:57:57;;;;;;;2.05;0.63;;;;;;;4.23;100.00;99031.00;4914880;29;20048;-70
2023/01/15 02:00:23;;;;;;;1.85;0.63;;;;;;;4.22;100.00;99039.16;4914765;29;20417;-69
2023/01/15 02:02:51;;;;;;;1.38;0.82;;;;;;;4.25;100.00;99039.66;4914743;29;20155;-69
2023/01/15 02:09:04;;;;;;;1.95;0.70;;;;;;;4.18;100.00;99022.72;4913048;29;20059;-70
2023/01/15 02:11:32;;;;;;;4.18;0.90;;;;;;;4.22;100.00;99031.19;4914479;29;20048;-70
2023/01/15 02:14:15;;;;;;;1.33;0.70;;;;;;;4.20;100.00;99017.22;4915054;29;20048;-70
2023/01/15 02:17:15;;;;;;;1.33;0.50;;;;;;;4.09;100.00;98990.00;4914557;29;20044;-70
2023/01/15 02:20:19;;;;;;;1.30;0.45;;;;;;;4.10;100.00;98988.16;4900364;29;20127;-71
2023/01/15 02:23:06;;;;;;;0.52;0.47;;;;;;;4.09;100.00;99013.06;4913838;29;20051;-71
2023/01/15 02:25:58;;;;;;;1.00;0.63;;;;;;;4.08;100.00;99003.44;4914778;29;20350;-71
2023/01/15 02:28:28;;;;;;;1.13;0.70;;;;;;;4.08;100.00;99008.75;4913236;29;20048;-70
2023/01/15 02:31:11;;;;;;;3.17;0.60;;;;;;;4.10;100.00;99002.31;4914204;29;20048;-70
2023/01/15 02:33:46;;;;;;;1.13;0.50;;;;;;;4.07;100.00;98993.78;4914963;29;20055;-71
2023/01/15 02:36:16;;;;;;;2.90;0.77;;;;;;;4.08;100.00;98996.31;4914194;29;20048;-71
2023/01/15 02:38:47;;;;;;;3.63;0.50;;;;;;;4.05;100.00;98999.28;4914684;29;20044;-71
2023/01/15 02:41:16;;;;;;;1.10;0.47;;;;;;;4.03;100.00;98992.47;4915032;29;20048;-70
2023/01/15 02:43:55;;;;;;;2.58;0.40;;;;;;;4.03;100.00;98987.16;4914648;29;20395;-71
2023/01/15 02:46:27;;;;;;;2.47;0.52;;;;;;;4.06;100.00;98976.22;4914025;29;20051;-69
2023/01/15 02:48:57;;;;;;;0.82;0.40;;;;;;;4.08;100.00;98982.22;4914987;29;20068;-70
2023/01/15 02:51:39;;;;;;;1.63;0.63;;;;;;;4.04;100.00;98975.56;4914688;29;20044;-71
2023/01/15 02:54:07;;;;;;;;;;;;;;;4.03;100.00;98981.84;4914690;29;20059;-71
2023/01/15 02:56:36;;;;;;;1.00;0.50;;;;;;;4.04;100.00;98971.09;4914444;29;19922;-69
2023/01/15 02:59:06;;;;;;;0.30;0.20;;;;;;;4.03;100.00;98976.53;4914259;29;20048;-71
2023/01/15 03:01:48;;;;;;;1.27;0.60;;;;;;;4.01;100.00;98978.53;4910707;29;20062;-72
2023/01/15 03:04:26;;;;;;;0.82;0.50;;;;;;;4.01;100.00;98981.19;4914612;29;20569;-71
2023/01/15 03:07:08;;;;;;;3.45;0.57;;;;;;;4.04;100.00;98975.56;4914225;29;20091;-70
2023/01/15 03:09:35;;;;;;;;;;;;;;;3.99;100.00;98978.69;4913653;29;20058;-71
2023/01/15 03:12:13;;;;;;;0.88;0.50;;;;;;;4.01;100.00;98968.75;4905734;29;19954;-70
2023/01/15 03:15:05;;;;;;;0.82;0.40;;;;;;;4.03;100.00;98976.53;4913964;29;20052;-71
2023/01/15 03:17:54;;;;;;;1.13;0.30;;;;;;;4.03;100.00;98968.56;4913274;29;20081;-70
2023/01/15 03:20:26;;;;;;;19.20;1.83;;;;;;;4.06;100.00;98979.69;4913763;29;20051;-71
2023/01/15 03:22:59;;;;;;;3.00;0.88;;;;;;;4.02;100.00;98969.56;4914316;29;20055;-71
2023/01/15 03:25:34;;;;;;;1.95;0.70;;;;;;;3.98;100.00;98969.06;4913429;29;20052;-70
2023/01/15 03:28:03;;;;;;;0.75;0.40;;;;;;;4.03;100.00;98971.22;4913678;29;20052;-72
2023/01/15 03:30:29;;;;;;;2.15;0.70;;;;;;;4.03;100.00;98972.06;4913489;29;20048;-71
2023/01/15 03:32:56;;;;;;;1.23;0.60;;;;;;;4.01;100.00;98970.59;4914152;29;20474;-71
2023/01/15 03:35:38;;;;;;;4.43;1.40;;;;;;;4.01;100.00;98984.66;4913843;29;20424;-71
2023/01/15 03:38:05;;;;;;;2.60;1.67;;;;;;;4.09;100.00;98981.22;4912887;29;20066;-70
2023/01/15 03:40:34;;;;;;;0.68;0.52;;;;;;;4.09;100.00;98986.53;4912785;29;20519;-72
2023/01/15 03:45:56;;;;;;;1.33;0.60;;;;;;;4.11;100.00;98979.25;4913417;29;20056;-70
2023/01/15 03:48:34;;;;;;;2.03;0.93;;;;;;;4.16;100.00;98997.31;4912358;29;20119;-71
2023/01/15 03:51:08;;;;;;;1.52;0.57;;;;;;;4.14;100.00;98992.19;4914072;29;20040;-72
2023/01/15 03:53:44;;;;;;;1.88;0.73;;;;;;;4.12;100.00;98983.53;4913363;29;20044;-71
2023/01/15 03:56:25;;;;;;;1.75;0.80;;;;;;;4.12;100.00;98983.53;4905906;29;20051;-72
2023/01/15 03:59:08;;;;;;;0.88;0.60;;;;;;;4.10;100.00;98977.56;4912771;29;20048;-71
2023/01/15 04:01:38;;;;;;;1.38;0.70;;;;;;;4.12;100.00;98975.59;4911742;29;20044;-73
2023/01/15 04:04:06;;;;;;;2.08;1.02;;;;;;;4.15;100.00;98975.25;4911286;29;20170;-72
2023/01/15 04:06:37;;;;;;;1.25;0.80;;;;;;;4.19;100.00;98992.53;4911794;29;20051;-72
2023/01/15 04:09:07;;;;;;;1.55;0.80;;;;;;;4.22;100.00;99033.84;4913778;29;20044;-72
2023/01/15 04:11:33;;;;;;;1.00;0.50;;;;;;;4.04;100.00;99037.44;4914040;29;20040;-72
2023/01/15 04:14:00;;;;;;;2.05;0.60;;;;;;;4.12;100.00;99057.84;4913466;29;20051;-72
2023/01/15 04:16:29;;;;;;;1.10;0.52;;;;;;;4.04;100.00;99077.22;4895205;29;20074;-71
2023/01/15 04:18:55;;;;;;;4.10;0.50;;;;;;;3.69;100.00;99096.75;4912694;29;20127;-70
2023/01/15 04:21:23;;;;;;;2.65;0.60;;;;;;;3.58;100.00;99102.28;4914089;29;20122;-72
2023/01/15 04:23:49;;;;;;;1.70;0.50;;;;;;;3.39;100.00;99111.28;4912837;29;20044;-71
2023/01/15 04:26:16;;;;;;;2.20;0.40;;;;;;;3.32;100.00;99139.38;4912763;29;20056;-71
2023/01/15 04:28:43;;;;;;;1.80;0.35;;;;;;;3.27;100.00;99136.34;4912319;29;20425;-71
2023/01/15 04:31:10;;;;;;;1.48;0.40;;;;;;;3.19;100.00;99142.41;4914042;29;20147;-71
2023/01/15 04:33:38;;;;;;;4.60;0.70;;;;;;;3.06;100.00;99140.13;4912977;29;20064;-71
2023/01/15 04:36:06;;;;;;;4.18;1.00;;;;;;;3.00;100.00;99143.41;4911815;29;20071;-71
2023/01/15 04:38:32;;;;;;;2.45;0.32;;;;;;;3.00;100.00;99153.16;4913286;29;20446;-70
2023/01/15 04:44:06;;;;;;;0.60;0.30;;;;;;;2.75;100.00;99155.53;4913162;29;20461;-71
2023/01/15 04:46:42;;;;;;;1.85;0.35;;;;;;;2.74;100.00;99168.94;4912359;29;20048;-72
2023/01/15 04:49:11;;;;;;;0.88;0.40;;;;;;;2.72;100.00;99174.38;4912535;29;20127;-73
2023/01/15 04:51:38;;;;;;;4.07;0.40;;;;;;;2.72;100.00;99176.16;4912894;29;20498;-72
2023/01/15 04:54:06;;;;;;;1.60;0.70;;;;;;;2.33;100.00;99173.72;4913052;29;20070;-72
2023/01/15 04:56:37;;;;;;;1.08;0.40;;;;;;;2.34;100.00;99186.81;4913223;29;20052;-71
2023/01/15 04:59:04;;;;;;;1.85;0.47;;;;;;;2.34;100.00;99188.59;4912695;29;20048;-73
2023/01/15 05:01:30;;;;;;;1.80;0.40;;;;;;;2.33;99.87;99185.13;4913476;29;20044;-72
2023/01/15 05:03:57;;;;;;;0.98;0.40;;;;;;;2.32;99.80;99187.94;4912602;29;20048;-73
2023/01/15 05:06:24;;;;;;;1.50;0.63;;;;;;;2.34;100.00;99194.75;4913175;29;20425;-73
2023/01/15 05:08:51;;;;;;;3.75;0.57;;;;;;;2.31;100.00;99195.03;4913033;29;20156;-74
2023/01/15 05:11:18;;;;;;;1.48;0.45;;;;;;;2.32;100.00;99191.41;4913054;29;20119;-73
2023/01/15 05:13:45;;;;;;;1.45;0.55;;;;;;;2.31;100.00;99202.97;4908247;29;20052;-72
2023/01/15 05:16:13;;;;;;;4.60;0.43;;;;;;;2.44;100.00;99197.34;4912933;29;20044;-72
2023/01/15 05:18:45;;;;;;;4.80;0.60;;;;;;;2.30;100.00;99185.41;4915876;29;20056;-72
2023/01/15 05:21:23;;;;;;;2.33;0.40;;;;;;;2.33;100.00;99176.34;4916513;29;20130;-72
2023/01/15 05:23:51;;;;;;;5.93;0.73;;;;;;;2.31;100.00;99178.31;4916551;29;20044;-73
2023/01/15 05:26:19;;;;;;;2.53;0.40;;;;;;;2.23;100.00;99181.69;4898925;29;20508;-72
2023/01/15 05:28:47;;;;;;;2.80;0.90;;;;;;;2.31;100.00;99184.44;4916423;29;20133;-72
2023/01/15 05:31:16;;;;;;;4.28;0.60;;;;;;;2.31;100.00;99179.16;4916383;29;20050;-71
2023/01/15 05:33:46;;;;;;;1.58;0.60;;;;;;;2.33;100.00;99182.47;4916650;29;20410;-74
2023/01/15 05:36:19;;;;;;;2.63;0.43;;;;;;;2.23;100.00;99202.84;4914945;29;20044;-73
2023/01/15 05:38:46;;;;;;;2.50;0.70;;;;;;;2.23;100.00;99194.06;4915614;29;20059;-73
2023/01/15 05:44:06;;;;;;;6.03;0.60;;;;;;;2.26;100.00;99181.38;4914854;29;20071;-72
2023/01/15 05:46:34;;;;;;;0.57;0.30;;;;;;;2.23;100.00;99189.63;4916084;29;20462;-71
2023/01/15 05:49:02;;;;;;;1.35;0.45;;;;;;;2.18;100.00;99190.06;4915574;29;20054;-73
2023/01/15 05:51:29;;;;;;;4.40;0.68;;;;;;;2.30;100.00;99185.41;4916800;29;20055;-69
2023/01/15 05:53:56;;;;;;;5.78;0.73;;;;;;;2.31;100.00;99187.09;4916737;29;20048;-73
2023/01/15 05:56:23;;;;;;;1.60;0.45;;;;;;;2.27;100.00;99176.94;4915358;29;20055;-73
2023/01/15 05:58:50;;;;;;;1.05;0.38;;;;;;;2.26;100.00;99170.81;4890225;29;20052;-72
2023/01/15 06:01:17;;;;;;;3.25;0.47;;;;;;;2.31;100.00;99173.88;4915154;29;20054;-72
2023/01/15 06:03:43;;;;;;;4.65;0.45;;;;;;;2.08;100.00;99173.38;4915433;29;20421;-71
2023/01/15 06:06:13;;;;;;;1.58;0.50;;;;;;;2.16;100.00;99181.41;4915244;29;20095;-72
2023/01/15 06:08:40;;;;;;;4.35;0.70;;;;;;;2.08;100.00;99175.19;4915633;29;20075;-72
2023/01/15 06:11:07;;;;;;;0.93;0.40;;;;;;;2.13;100.00;99181.72;4914921;29;20417;-71
2023/01/15 06:13:33;;;;;;;5.57;0.35;;;;;;;2.15;100.00;99158.59;4915354;29;20508;-69
2023/01/15 06:16:00;;;;;;;3.97;0.68;;;;;;;2.14;100.00;99158.75;4914842;29;20147;-70
2023/01/15 06:18:27;;;;;;;2.85;0.77;;;;;;;2.12;100.00;99174.75;4912182;29;20052;-70
2023/01/15 06:20:54;;;;;;;5.30;1.08;;;;;;;2.14;100.00;99166.69;4914602;29;20263;-72
2023/01/15 06:23:21;;;;;;;6.82;1.63;;;;;;;2.21;100.00;99162.47;4916086;29;20074;-72
2023/01/15 06:25:47;;;;;;;3.35;1.10;;;;;;;2.07;100.00;99169.06;4915596;29;20074;-72
2023/01/15 06:28:14;;;;;;;3.65;1.02;;;;;;;2.15;100.00;99160.41;4915216;29;20429;-71
2023/01/15 06:30:40;;;;;;;2.90;0.90;;;;;;;2.03;100.00;99172.16;4914804;29;20152;-70
2023/01/15 06:33:07;;;;;;;4.10;1.42;;;;;;;1.98;100.00;99188.44;4915342;29;20055;-70
2023/01/15 06:35:34;;;;;;;3.72;1.50;;;;;;;1.98;100.00;99187.59;4914799;29;20048;-68
2023/01/15 06:38:00;;;;;;;5.00;1.75;;;;;;;2.01;100.00;99185.50;4916026;29;20044;-71
2023/01/15 06:40:27;;;;;;;2.08;0.80;;;;;;;1.95;100.00;99191.34;4915447;29;20130;-72
2023/01/15 06:48:28;;;;;;;3.25;1.30;;;;;;;1.82;100.00;99188.16;4915102;29;20052;-72
2023/01/15 06:50:55;;;;;;;6.35;0.60;;;;;;;1.83;100.00;99184.53;4915178;29;20066;-72
2023/01/15 06:53:21;;;;;;;4.03;0.75;;;;;;;1.77;100.00;99191.22;4898870;29;20048;-72
2023/01/15 06:55:48;;;;;;;2.03;0.75;;;;;;;1.85;100.00;99188.69;4916150;29;20048;-71
2023/01/15 06:58:15;;;;;;;6.82;0.80;;;;;;;1.75;100.00;99187.03;4915332;29;20048;-73
2023/01/15 07:00:43;;;;;;;3.83;0.60;;;;;;;1.74;100.00;99186.22;4915808;29;20048;-71
2023/01/15 07:03:13;;;;;;;2.17;0.77;;;;;;;1.70;100.00;99184.84;4915098;29;20048;-71
2023/01/15 07:05:40;;;;;;;4.43;0.88;;;;;;;1.71;100.00;99191.78;4915282;29;20139;-71
2023/01/15 07:08:06;;;;;;;2.35;0.75;;;;;;;1.69;100.00;99201.69;4914891;29;20052;-71
2023/01/15 07:10:34;;;;;;;1.08;0.50;;;;;;;1.68;100.00;99195.56;4898955;29;20052;-73
2023/01/15 07:13:01;;;;;;;1.33;0.88;;;;;;;1.66;100.00;99201.97;4913742;29;20466;-73
2023/01/15 07:15:27;;;;;;;2.50;0.60;;;;;;;1.73;100.00;99201.25;4914130;29;20044;-72
2023/01/15 07:17:55;;;;;;;3.72;0.57;;;;;;;1.57;100.00;99205.44;4914115;29;20076;-73
2023/01/15 07:20:22;;;;;;;5.22;0.57;;;;;;;1.62;100.00;99209.34;4914650;29;20048;-73
2023/01/15 07:22:50;;;;;;;2.85;1.00;;;;;;;1.59;100.00;99209.59;4915557;29;20048;-72
2023/01/15 07:25:17;;;;;;;2.67;0.73;;;;;;;1.51;100.00;99212.13;4913642;29;20139;-73
2023/01/15 07:27:47;;;;;;;5.20;0.55;;;;;;;1.46;100.00;99199.31;4914645;29;20052;-73
2023/01/15 07:30:14;;;;;;;3.33;0.63;;;;;;;1.49;100.00;99206.97;4913612;29;20516;-72
2023/01/15 07:32:40;;;;;;;5.43;0.82;;;;;;;1.54;100.00;99214.47;4914210;29;20056;-72
2023/01/15 07:35:08;;;;;;;3.67;0.80;;;;;;;1.54;100.00;99214.47;4915229;29;20056;-73
2023/01/15 07:37:36;;;;;;;3.55;0.60;;;;;;;1.54;100.00;99218.91;4897722;29;20095;-72
2023/01/15 07:40:03;;;;;;;2.00;0.80;;;;;;;1.52;100.00;99212.94;4913277;29;20044;-72
2023/01/15 07:50:45;;;;;;;4.47;1.00;;;;;;;1.47;100.00;99223.91;4913533;29;20051;-71
2023/01/15 07:53:11;;;;;;;2.00;1.05;;;;;;;1.54;100.00;99242.69;4897203;29;20416;-72
2023/01/15 07:55:38;;;;;;;2.75;0.73;;;;;;;1.49;100.00;99230.75;4914404;29;20135;-72
2023/01/15 07:58:05;;;;;;;2.30;0.73;;;;;;;1.43;100.00;99241.84;4914158;29;20050;-72
2023/01/15 08:00:31;;;;;;;1.40;0.57;;;;;;;1.41;100.00;99238.53;4912941;29;20048;-72
2023/01/15 08:02:58;;;;;;;1.65;0.80;;;;;;;1.44;100.00;99242.72;4913478;29;20047;-72
2023/01/15 08:05:24;;;;;;;1.80;0.75;;;;;;;1.45;100.00;99254.94;4913356;29;20422;-73
2023/01/15 08:07:51;;;;;;;2.60;1.30;;;;;;;1.40;100.00;99252.72;4912648;29;20051;-72
2023/01/15 08:10:18;;;;;;;3.78;1.20;;;;;;;1.46;100.00;99246.88;4912546;29;20047;-72
2023/01/15 08:15:36;;;;;;;5.15;1.25;;;;;;;1.55;100.00;99223.25;4913376;29;20052;-72
2023/01/15 08:18:04;;;;;;;3.80;1.40;;;;;;;1.47;100.00;99205.41;4913036;29;20553;-72
2023/01/15 08:20:30;;;;;;;3.75;1.42;;;;;;;1.53;100.00;99211.97;4888796;29;20289;-72
2023/01/15 08:22:59;;;;;;;4.07;1.77;;;;;;;1.44;100.00;99217.13;4912157;29;20056;-71
2023/01/15 08:25:26;;;;;;;5.00;1.38;;;;;;;1.51;100.00;99206.84;4913599;29;20420;-71
2023/01/15 08:27:53;;;;;;;4.20;1.30;;;;;;;1.50;100.00;99207.78;4913471;29;20597;-71
2023/01/15 08:30:23;;;;;;;5.18;1.17;;;;;;;1.46;100.00;99225.72;4913349;29;20043;-72
2023/01/15 08:32:49;;;;;;;2.22;0.60;;;;;;;1.49;100.00;99229.91;4913409;29;20048;-71
2023/01/15 08:35:16;;;;;;;1.63;0.60;;;;;;;1.50;100.00;99236.84;4913748;29;20058;-71
2023/01/15 08:37:43;;;;;;;1.80;0.98;;;;;;;1.54;100.00;99240.88;4913364;29;20048;-71
2023/01/15 08:40:11;;;;;;;3.35;0.80;;;;;;;1.54;100.00;99242.69;4914076;29;20048;-70
2023/01/15 08:42:37;;;;;;;3.10;0.98;;;;;;;1.59;100.00;99243.13;4913909;29;20127;-72
2023/01/15 08:45:05;;;;;;;2.28;0.90;;;;;;;1.67;100.00;99235.34;4912807;29;20518;-71
2023/01/15 08:47:31;;;;;;;2.72;0.65;;;;;;;1.55;100.00;99247.03;4912265;29;20127;-71
2023/01/15 08:49:58;;;;;;;2.42;0.55;;;;;;;1.66;100.00;99254.81;4913096;29;20044;-71
2023/01/15 08:52:24;;;;;;;4.88;1.10;;;;;;;1.63;100.00;99248.00;4914873;29;20131;-71
2023/01/15 08:54:51;;;;;;;2.03;0.88;;;;;;;1.64;100.00;99246.19;4915438;29;20059;-71
2023/01/15 08:57:17;;;;;;;3.08;0.93;;;;;;;1.62;100.00;99240.22;4915966;29;20052;-71
2023/01/15 08:59:44;;;;;;;0.95;0.50;;;;;;;1.61;100.00;99243.81;4916713;29;20076;-71
2023/01/15 09:02:16;;;;;;;4.88;0.70;;;;;;;1.63;100.00;99250.66;4916574;29;20052;-70
2023/01/15 09:04:43;;;;;;;2.38;0.80;;;;;;;1.67;100.00;99264.41;4915628;29;20048;-71
2023/01/15 09:07:10;;;;;;;4.65;0.65;;;;;;;1.68;100.00;99271.38;4917045;29;20096;-71
2023/01/15 09:09:37;;;;;;;5.80;0.60;;;;;;;1.72;100.00;99270.97;4916117;29;20389;-71
2023/01/15 09:12:03;;;;;;;1.67;0.60;;;;;;;1.70;100.00;99277.38;4916215;29;20059;-71
2023/01/15 09:14:30;;;;;;;2.85;1.00;;;;;;;1.71;100.00;99274.59;4915956;29;20052;-71
2023/01/15 09:17:16;;;;;;;1.48;1.00;;;;;;;1.76;99.64;99268.88;4915759;29;20063;-71
2023/01/15 09:19:43;;;;;;;7.30;1.00;;;;;;;1.84;98.97;99269.00;4916009;29;20052;-70
2023/01/15 09:22:09;;;;;;;1.17;0.60;;;;;;;1.80;99.29;99272.91;4917077;29;20136;-70
2023/01/15 09:24:36;;;;;;;2.88;0.55;;;;;;;1.83;97.82;99275.28;4916481;29;20044;-72
2023/01/15 09:27:02;;;;;;;3.72;1.15;;;;;;;1.80;98.02;99275.56;4916144;29;20048;-71
2023/01/15 09:29:29;;;;;;;2.17;0.60;;;;;;;1.82;98.13;99286.84;4915972;29;20055;-71
2023/01/15 09:31:55;;;;;;;4.95;0.85;;;;;;;1.80;97.11;99272.91;4916181;29;20055;-71
2023/01/15 09:34:22;;;;;;;4.03;0.88;;;;;;;1.93;97.28;99278.78;4916100;29;20055;-71
2023/01/15 09:36:49;;;;;;;3.28;1.05;;;;;;;1.90;96.49;99284.31;4916467;29;20062;-71
2023/01/15 09:39:16;;;;;;;1.63;0.55;;;;;;;1.85;95.52;99278.59;4915543;29;20055;-70
2023/01/15 09:42:04;;;;;;;2.95;0.70;;;;;;;1.90;96.77;99288.78;4915212;29;20058;-70
2023/01/15 09:44:39;;;;;;;1.77;0.70;;;;;;;1.92;96.50;99293.00;4915114;29;20048;-71
2023/01/15 09:47:16;;;;;;;1.27;0.70;;;;;;;1.98;97.35;99293.41;4915523;29;20059;-71
2023/01/15 09:50:05;;;;;;;1.23;0.75;;;;;;;1.97;96.02;99292.56;4915347;29;20075;-69
2023/01/15 09:53:00;;;;;;;3.58;1.02;;;;;;;2.00;96.49;99286.16;4915811;29;20417;-70
2023/01/15 09:55:30;;;;;;;1.70;0.80;;;;;;;1.96;94.36;99280.31;4915703;29;20048;-71
2023/01/15 09:58:00;;;;;;;1.30;0.60;;;;;;;1.95;93.43;99284.75;4915235;29;20394;-70
2023/01/15 10:00:31;;;;;;;5.63;0.80;;;;;;;2.03;92.60;99291.19;4914876;29;20368;-71
2023/01/15 10:03:12;;;;;;;3.67;1.55;;;;;;;2.04;93.23;99287.56;4914927;29;20056;-71
2023/01/15 10:06:06;;;;;;;2.40;0.85;;;;;;;2.06;92.47;99290.88;4915914;29;20474;-72
2023/01/15 10:08:41;;;;;;;5.15;0.90;;;;;;;2.17;89.88;99278.34;4914376;29;20059;-71
2023/01/15 10:11:13;;;;;;;1.02;0.60;;;;;;;2.16;87.91;99270.53;4915151;29;20044;-71
2023/01/15 10:14:05;;;;;;;3.92;0.70;;;;;;;2.16;87.97;99270.53;4915235;29;20044;-71
2023/01/15 10:16:35;;;;;;;4.53;0.95;;;;;;;2.25;87.93;99274.16;4915462;29;20054;-72
2023/01/15 10:19:02;;;;;;;2.20;0.80;;;;;;;2.25;87.24;99269.69;4915258;29;20163;-70
2023/01/15 10:21:38;;;;;;;1.75;0.80;;;;;;;2.32;87.79;99267.31;4915375;29;20524;-71
2023/01/15 10:24:09;;;;;;;5.28;0.90;;;;;;;2.30;86.80;99274.56;4914729;29;20056;-70
2023/01/15 10:27:08;;;;;;;3.25;1.42;;;;;;;2.38;86.05;99270.22;4914530;29;20127;-71
2023/01/15 10:30:13;;;;;;;2.05;0.85;;;;;;;2.37;85.77;99267.72;4914008;29;20060;-71
2023/01/15 10:32:54;;;;;;;3.45;0.88;;;;;;;2.30;85.27;99269.25;4914556;29;20143;-71
2023/01/15 10:35:58;;;;;;;2.28;0.82;;;;;;;2.35;84.57;99273.16;4915202;29;20135;-71
2023/01/15 10:39:00;;;;;;;1.60;0.90;;;;;;;2.48;85.07;99264.06;4914952;29;20040;-70
2023/01/15 10:41:26;;;;;;;;;;;;;;;2.50;83.73;99264.75;4902065;29;20051;-70
2023/01/15 10:44:02;;;;;;;2.13;0.80;;;;;;;2.54;84.37;99268.78;4914049;29;19930;-70
2023/01/15 10:46:32;;;;;;;2.60;1.08;;;;;;;2.48;84.47;99270.22;4915127;29;20497;-71
2023/01/15 10:49:05;;;;;;;1.95;0.90;;;;;;;2.51;82.99;99271.72;4914928;29;20059;-71
2023/01/15 10:52:02;;;;;;;1.40;0.88;;;;;;;2.47;83.29;99279.09;4914073;29;20044;-71
2023/01/15 10:54:40;;;;;;;4.95;1.10;;;;;;;2.48;82.70;99270.22;4897205;29;20048;-70
2023/01/15 10:57:11;;;;;;;2.05;1.10;;;;;;;2.58;81.01;99272.81;4913722;29;20119;-70
2023/01/15 10:59:58;;;;;;;4.40;1.23;;;;;;;2.59;81.36;99277.97;4914544;29;20048;-70
2023/01/15 11:02:43;;;;;;;2.97;1.13;;;;;;;2.60;81.53;99284.09;4914533;29;20048;-69
2023/01/15 11:05:18;;;;;;;5.07;1.17;;;;;;;2.63;81.25;99278.53;4914431;29;20067;-70
2023/01/15 11:07:51;;;;;;;1.88;0.93;;;;;;;2.61;80.74;99288.41;4896456;29;20505;-70
2023/01/15 11:10:38;;;;;;;2.03;1.08;;;;;;;2.62;79.71;99293.56;4914199;29;21684;-70
2023/01/15 11:21:41;;;;;;;1.55;0.82;;;;;;;2.66;79.91;99294.94;4913719;29;20048;-70
2023/01/15 11:24:15;;;;;;;2.17;1.00;;;;;;;2.59;79.92;99287.72;4914318;29;20082;-70
2023/01/15 11:26:46;;;;;;;1.48;1.00;;;;;;;2.69;78.93;99282.41;4912601;29;20066;-70
2023/01/15 11:29:38;;;;;;;2.50;1.55;;;;;;;2.74;78.80;99291.56;4914489;29;20044;-70
2023/01/15 11:32:26;;;;;;;4.03;1.17;;;;;;;2.64;77.53;99282.81;4913702;29;20046;-70
2023/01/15 11:34:58;;;;;;;4.72;1.13;;;;;;;2.61;78.03;99286.59;4912948;29;20048;-71
2023/01/15 11:37:26;;;;;;;1.98;0.98;;;;;;;2.61;78.48;99283.09;4913740;29;20055;-71
2023/01/15 11:40:06;;;;;;;5.13;1.35;;;;;;;2.65;78.94;99287.13;4913436;29;20059;-70
2023/01/15 11:51:16;;;;;;;7.82;0.90;;;;;;;2.57;76.89;99284.38;4920065;29;20044;-69
2023/01/15 11:53:47;;;;;;;4.47;0.90;;;;;;;2.57;76.94;99276.44;4914509;29;20044;-69
2023/01/15 11:56:18;;;;;;;2.88;1.00;;;;;;;2.62;76.42;99272.38;4915016;29;20068;-70
2023/01/15 11:58:48;;;;;;;2.13;0.98;;;;;;;2.63;76.28;99278.53;4914420;29;20147;-69
2023/01/15 12:01:33;;;;;;;2.45;1.00;;;;;;;2.58;77.10;99278.09;4915370;29;20048;-69
2023/01/15 12:04:03;;;;;;;5.20;1.40;;;;;;;2.66;76.83;99267.63;4914785;29;20215;-69
2023/01/15 12:06:35;;;;;;;4.57;1.40;;;;;;;2.63;76.20;99283.81;4904362;29;20080;-69
2023/01/15 12:09:14;;;;;;;3.78;1.20;;;;;;;2.75;75.43;99272.03;4913039;29;20044;-69
2023/01/15 12:11:49;;;;;;;5.65;1.30;;;;;;;2.66;76.03;99268.47;4914240;29;20048;-69
2023/01/15 12:14:40;;;;;;;4.90;1.10;;;;;;;2.68;75.60;99270.97;4915396;29;20054;-69
2023/01/15 12:17:22;;;;;;;3.40;0.80;;;;;;;2.74;75.52;99273.03;4914763;29;20055;-69
2023/01/15 12:20:03;;;;;;;2.47;1.02;;;;;;;2.74;75.61;99274.84;4914808;29;20052;-69
2023/01/15 12:22:52;;;;;;;4.47;0.93;;;;;;;2.84;74.70;99273.00;4914501;29;20048;-69
2023/01/15 12:25:36;;;;;;;8.25;0.90;;;;;;;2.79;73.91;99275.25;4913018;29;20052;-69
2023/01/15 12:28:24;;;;;;;3.50;0.80;;;;;;;2.70;74.32;99276.97;4916436;29;20044;-70
2023/01/15 12:31:11;;;;;;;5.50;0.98;;;;;;;2.79;74.39;99273.44;4917540;29;20107;-70
2023/01/15 12:33:45;;;;;;;3.83;1.08;;;;;;;2.84;74.89;99257.09;4917813;29;20103;-70
2023/01/15 12:36:41;;;;;;;5.47;0.90;;;;;;;2.74;74.18;99262.44;4917920;29;20485;-70
2023/01/15 12:39:21;;;;;;;3.40;1.00;;;;;;;3.08;72.36;99256.56;4900634;29;20521;-70
2023/01/15 12:45:06;;;;;;;3.58;0.90;;;;;;;3.26;70.67;99249.47;4926779;29;20103;-68
2023/01/15 12:47:45;;;;;;;5.45;1.15;;;;;;;3.24;71.81;99250.59;4926642;29;20115;-69
2023/01/15 12:50:18;;;;;;;3.65;1.05;;;;;;;2.97;72.17;99247.00;4926156;29;20108;-67
2023/01/15 12:52:49;;;;;;;7.80;1.05;;;;;;;2.83;72.92;99248.34;4911602;29;20438;-68